sensor_id;sensor_type;location;lat;lon;timestamp;temperature;humidity
14735;DHT22;7458;49.002;8.472;2022-11-15T00:00:54;10.00;99.90
14735;DHT22;7458;49.002;8.472;2022-11-15T00:03:24;10.00;99.90
14735;DHT22;7458;49.002;8.472;2022-11-15T00:05:52;10.00;99.90
14735;DHT22;7458;49.002;8.472;2022-11-15T00:08:19;10.00;99.90
14735;DHT22;7458;49.002;8.472;2022-11-15T00:10:58;10.00;99.90
14735;DHT22;7458;49.002;8.472;2022-11-15T00:13:25;9.90;99.90
14735;DHT22;7458;49.002;8.472;2022-11-15T00:15:52;10.00;99.90
14735;DHT22;7458;49.002;8.472;2022-11-15T00:18:18;9.90;99.90
14735;DHT22;7458;49.002;8.472;2022-11-15T00:20:43;9.90;99.90
14735;DHT22;7458;49.002;8.472;2022-11-15T00:23:10;9.90;99.90
14735;DHT22;7458;49.002;8.472;2022-11-15T00:25:36;9.90;99.90
14735;DHT22;7458;49.002;8.472;2022-11-15T00:28:02;9.90;99.90
14735;DHT22;7458;49.002;8.472;2022-11-15T00:30:28;10.00;99.90
14735;DHT22;7458;49.002;8.472;2022-11-15T00:32:54;10.00;99.90
14735;DHT22;7458;49.002;8.472;2022-11-15T00:35:20;10.00;99.90
14735;DHT22;7458;49.002;8.472;2022-11-15T00:37:47;10.10;99.90
14735;DHT22;7458;49.002;8.472;2022-11-15T00:40:13;10.00;99.90
14735;DHT22;7458;49.002;8.472;2022-11-15T00:42:40;10.10;99.90
14735;DHT22;7458;49.002;8.472;2022-11-15T00:45:07;10.10;99.90
14735;DHT22;7458;49.002;8.472;2022-11-15T00:47:33;10.10;99.90
14735;DHT22;7458;49.002;8.472;2022-11-15T00:49:59;10.10;99.90
14735;DHT22;7458;49.002;8.472;2022-11-15T00:52:25;10.10;99.90
14735;DHT22;7458;49.002;8.472;2022-11-15T00:54:50;10.10;99.90
14735;DHT22;7458;49.002;8.472;2022-11-15T00:57:16;10.10;99.90
14735;DHT22;7458;49.002;8.472;2022-11-15T00:59:42;10.00;99.90
14735;DHT22;7458;49.002;8.472;2022-11-15T01:02:08;9.90;99.90
14735;DHT22;7458;49.002;8.472;2022-11-15T01:04:33;10.00;99.90
14735;DHT22;7458;49.002;8.472;2022-11-15T01:06:59;10.00;99.90
14735;DHT22;7458;49.002;8.472;2022-11-15T01:09:25;10.00;99.90
14735;DHT22;7458;49.002;8.472;2022-11-15T01:11:51;10.00;99.90
14735;DHT22;7458;49.002;8.472;2022-11-15T01:14:17;10.00;99.90
14735;DHT22;7458;49.002;8.472;2022-11-15T01:16:43;10.10;99.90
14735;DHT22;7458;49.002;8.472;2022-11-15T01:19:09;10.10;99.90
14735;DHT22;7458;49.002;8.472;2022-11-15T01:21:35;10.10;99.90
14735;DHT22;7458;49.002;8.472;2022-11-15T01:24:00;10.10;99.90
14735;DHT22;7458;49.002;8.472;2022-11-15T01:26:26;10.10;99.90
14735;DHT22;7458;49.002;8.472;2022-11-15T01:28:52;10.10;99.90
14735;DHT22;7458;49.002;8.472;2022-11-15T01:31:19;10.10;99.90
14735;DHT22;7458;49.002;8.472;2022-11-15T01:33:47;10.10;99.90
14735;DHT22;7458;49.002;8.472;2022-11-15T01:36:18;10.10;99.90
14735;DHT22;7458;49.002;8.472;2022-11-15T01:38:52;10.10;99.90
14735;DHT22;7458;49.002;8.472;2022-11-15T01:41:23;10.10;99.90
14735;DHT22;7458;49.002;8.472;2022-11-15T01:43:53;10.10;99.90
14735;DHT22;7458;49.002;8.472;2022-11-15T01:48:47;10.10;99.90
14735;DHT22;7458;49.002;8.472;2022-11-15T01:51:17;10.10;99.90
14735;DHT22;7458;49.002;8.472;2022-11-15T01:53:47;10.10;99.90
14735;DHT22;7458;49.002;8.472;2022-11-15T01:56:21;10.10;99.90
14735;DHT22;7458;49.002;8.472;2022-11-15T01:58:53;10.10;99.90
14735;DHT22;7458;49.002;8.472;2022-11-15T02:01:24;10.10;99.90
14735;DHT22;7458;49.002;8.472;2022-11-15T02:04:16;10.20;99.90
14735;DHT22;7458;49.002;8.472;2022-11-15T02:06:46;10.20;99.90
14735;DHT22;7458;49.002;8.472;2022-11-15T02:09:14;10.20;99.90
14735;DHT22;7458;49.002;8.472;2022-11-15T02:11:40;10.20;99.90
14735;DHT22;7458;49.002;8.472;2022-11-15T02:14:07;10.10;99.90
14735;DHT22;7458;49.002;8.472;2022-11-15T02:30:43;10.20;99.90
14735;DHT22;7458;49.002;8.472;2022-11-15T02:37:00;10.20;99.90
14735;DHT22;7458;49.002;8.472;2022-11-15T02:42:25;10.10;99.90
14735;DHT22;7458;49.002;8.472;2022-11-15T02:45:17;10.10;99.90
14735;DHT22;7458;49.002;8.472;2022-11-15T02:47:50;10.10;99.90
14735;DHT22;7458;49.002;8.472;2022-11-15T02:50:21;10.10;99.90
14735;DHT22;7458;49.002;8.472;2022-11-15T02:52:51;10.10;99.90
14735;DHT22;7458;49.002;8.472;2022-11-15T02:55:32;10.10;99.90
14735;DHT22;7458;49.002;8.472;2022-11-15T03:06:53;10.20;99.90
14735;DHT22;7458;49.002;8.472;2022-11-15T03:09:56;10.20;99.90
14735;DHT22;7458;49.002;8.472;2022-11-15T03:12:59;10.30;99.90
14735;DHT22;7458;49.002;8.472;2022-11-15T03:15:36;10.30;99.90
14735;DHT22;7458;49.002;8.472;2022-11-15T03:20:52;10.40;99.90
14735;DHT22;7458;49.002;8.472;2022-11-15T03:23:20;10.40;99.90
14735;DHT22;7458;49.002;8.472;2022-11-15T03:25:49;10.40;99.90
14735;DHT22;7458;49.002;8.472;2022-11-15T03:28:28;10.40;99.90
14735;DHT22;7458;49.002;8.472;2022-11-15T03:31:01;10.40;99.90
14735;DHT22;7458;49.002;8.472;2022-11-15T03:33:51;10.50;99.90
14735;DHT22;7458;49.002;8.472;2022-11-15T03:36:22;10.50;99.90
14735;DHT22;7458;49.002;8.472;2022-11-15T03:38:53;10.50;99.90
14735;DHT22;7458;49.002;8.472;2022-11-15T03:41:29;10.50;99.90
14735;DHT22;7458;49.002;8.472;2022-11-15T03:49:42;10.50;99.90
14735;DHT22;7458;49.002;8.472;2022-11-15T03:52:20;10.50;99.90
14735;DHT22;7458;49.002;8.472;2022-11-15T03:54:55;10.50;99.90
14735;DHT22;7458;49.002;8.472;2022-11-15T03:57:22;10.60;99.90
14735;DHT22;7458;49.002;8.472;2022-11-15T03:59:48;10.60;99.90
14735;DHT22;7458;49.002;8.472;2022-11-15T04:02:14;10.50;99.90
14735;DHT22;7458;49.002;8.472;2022-11-15T04:04:39;10.60;99.90
14735;DHT22;7458;49.002;8.472;2022-11-15T04:07:06;10.60;99.90
14735;DHT22;7458;49.002;8.472;2022-11-15T04:09:31;10.60;99.90
14735;DHT22;7458;49.002;8.472;2022-11-15T04:11:57;10.60;99.90
14735;DHT22;7458;49.002;8.472;2022-11-15T04:14:23;10.60;99.90
14735;DHT22;7458;49.002;8.472;2022-11-15T04:16:48;10.60;99.90
14735;DHT22;7458;49.002;8.472;2022-11-15T04:19:14;10.70;99.90
14735;DHT22;7458;49.002;8.472;2022-11-15T04:21:58;10.70;99.90
14735;DHT22;7458;49.002;8.472;2022-11-15T04:24:42;10.70;99.90
14735;DHT22;7458;49.002;8.472;2022-11-15T04:27:08;10.70;99.90
14735;DHT22;7458;49.002;8.472;2022-11-15T04:29:34;10.80;99.90
14735;DHT22;7458;49.002;8.472;2022-11-15T04:32:01;10.80;99.90
14735;DHT22;7458;49.002;8.472;2022-11-15T04:34:31;10.80;99.90
14735;DHT22;7458;49.002;8.472;2022-11-15T04:36:58;10.90;99.90
14735;DHT22;7458;49.002;8.472;2022-11-15T04:39:43;10.90;99.90
14735;DHT22;7458;49.002;8.472;2022-11-15T04:42:09;11.00;99.90
14735;DHT22;7458;49.002;8.472;2022-11-15T04:44:36;11.00;99.90
14735;DHT22;7458;49.002;8.472;2022-11-15T04:47:02;11.00;99.90
14735;DHT22;7458;49.002;8.472;2022-11-15T04:49:28;11.00;99.90
14735;DHT22;7458;49.002;8.472;2022-11-15T04:51:53;10.90;99.90
14735;DHT22;7458;49.002;8.472;2022-11-15T04:54:19;10.90;99.90
14735;DHT22;7458;49.002;8.472;2022-11-15T04:56:45;10.90;99.90
14735;DHT22;7458;49.002;8.472;2022-11-15T04:59:11;10.90;99.90
14735;DHT22;7458;49.002;8.472;2022-11-15T05:01:36;10.90;99.90
14735;DHT22;7458;49.002;8.472;2022-11-15T05:04:02;11.00;99.90
14735;DHT22;7458;49.002;8.472;2022-11-15T05:06:51;10.90;99.90
14735;DHT22;7458;49.002;8.472;2022-11-15T05:09:18;10.90;99.90
14735;DHT22;7458;49.002;8.472;2022-11-15T05:11:45;10.80;99.90
14735;DHT22;7458;49.002;8.472;2022-11-15T05:14:11;10.80;99.90
14735;DHT22;7458;49.002;8.472;2022-11-15T05:16:37;10.80;99.90
14735;DHT22;7458;49.002;8.472;2022-11-15T05:19:04;10.80;99.90
14735;DHT22;7458;49.002;8.472;2022-11-15T05:21:31;10.70;99.90
14735;DHT22;7458;49.002;8.472;2022-11-15T05:23:58;10.80;99.90
14735;DHT22;7458;49.002;8.472;2022-11-15T05:26:24;10.70;99.90
14735;DHT22;7458;49.002;8.472;2022-11-15T05:28:57;10.70;99.90
14735;DHT22;7458;49.002;8.472;2022-11-15T05:31:25;10.80;99.90
14735;DHT22;7458;49.002;8.472;2022-11-15T05:33:53;10.80;99.90
14735;DHT22;7458;49.002;8.472;2022-11-15T05:36:38;10.80;99.90
14735;DHT22;7458;49.002;8.472;2022-11-15T05:39:07;10.80;99.90
14735;DHT22;7458;49.002;8.472;2022-11-15T05:41:40;10.70;99.90
14735;DHT22;7458;49.002;8.472;2022-11-15T05:44:15;10.70;99.90
14735;DHT22;7458;49.002;8.472;2022-11-15T05:46:44;10.60;99.90
14735;DHT22;7458;49.002;8.472;2022-11-15T05:49:13;10.60;99.90
14735;DHT22;7458;49.002;8.472;2022-11-15T05:51:45;10.50;99.90
14735;DHT22;7458;49.002;8.472;2022-11-15T05:54:14;10.50;99.90
14735;DHT22;7458;49.002;8.472;2022-11-15T05:56:41;10.40;99.90
14735;DHT22;7458;49.002;8.472;2022-11-15T05:59:09;10.40;99.90
14735;DHT22;7458;49.002;8.472;2022-11-15T06:01:36;10.30;99.90
14735;DHT22;7458;49.002;8.472;2022-11-15T06:04:03;10.30;99.90
14735;DHT22;7458;49.002;8.472;2022-11-15T06:06:29;10.30;99.90
14735;DHT22;7458;49.002;8.472;2022-11-15T06:08:54;10.30;99.90
14735;DHT22;7458;49.002;8.472;2022-11-15T06:11:20;10.30;99.90
14735;DHT22;7458;49.002;8.472;2022-11-15T06:13:46;10.30;99.90
14735;DHT22;7458;49.002;8.472;2022-11-15T06:16:12;10.30;99.90
14735;DHT22;7458;49.002;8.472;2022-11-15T06:18:38;10.30;99.90
14735;DHT22;7458;49.002;8.472;2022-11-15T06:21:04;10.20;99.90
14735;DHT22;7458;49.002;8.472;2022-11-15T06:23:34;10.20;99.90
14735;DHT22;7458;49.002;8.472;2022-11-15T06:26:02;10.20;99.90
14735;DHT22;7458;49.002;8.472;2022-11-15T06:28:29;10.30;99.90
14735;DHT22;7458;49.002;8.472;2022-11-15T06:31:01;10.30;99.90
14735;DHT22;7458;49.002;8.472;2022-11-15T06:33:36;10.30;99.90
14735;DHT22;7458;49.002;8.472;2022-11-15T06:36:05;10.40;99.90
14735;DHT22;7458;49.002;8.472;2022-11-15T06:38:34;10.30;99.90
14735;DHT22;7458;49.002;8.472;2022-11-15T06:41:04;10.40;99.90
14735;DHT22;7458;49.002;8.472;2022-11-15T06:43:32;10.40;99.90
14735;DHT22;7458;49.002;8.472;2022-11-15T06:45:59;10.50;99.90
14735;DHT22;7458;49.002;8.472;2022-11-15T06:48:27;10.40;99.90
14735;DHT22;7458;49.002;8.472;2022-11-15T06:50:56;10.40;99.90
14735;DHT22;7458;49.002;8.472;2022-11-15T06:53:24;10.50;99.90
14735;DHT22;7458;49.002;8.472;2022-11-15T06:55:50;10.50;99.90
14735;DHT22;7458;49.002;8.472;2022-11-15T06:58:17;10.60;99.90
14735;DHT22;7458;49.002;8.472;2022-11-15T07:00:43;10.60;99.90
14735;DHT22;7458;49.002;8.472;2022-11-15T07:03:10;10.60;99.90
14735;DHT22;7458;49.002;8.472;2022-11-15T07:05:35;10.70;99.90
14735;DHT22;7458;49.002;8.472;2022-11-15T07:08:02;10.70;99.90
14735;DHT22;7458;49.002;8.472;2022-11-15T07:10:28;10.70;99.90
14735;DHT22;7458;49.002;8.472;2022-11-15T07:12:55;10.80;99.90
14735;DHT22;7458;49.002;8.472;2022-11-15T07:15:24;10.80;99.90
14735;DHT22;7458;49.002;8.472;2022-11-15T07:17:51;10.80;99.90
14735;DHT22;7458;49.002;8.472;2022-11-15T07:20:17;10.90;99.90
14735;DHT22;7458;49.002;8.472;2022-11-15T07:22:44;10.90;99.90
14735;DHT22;7458;49.002;8.472;2022-11-15T07:25:12;10.90;99.90
14735;DHT22;7458;49.002;8.472;2022-11-15T07:27:38;11.00;99.90
14735;DHT22;7458;49.002;8.472;2022-11-15T07:30:05;10.90;99.90
14735;DHT22;7458;49.002;8.472;2022-11-15T07:32:31;10.90;99.90
14735;DHT22;7458;49.002;8.472;2022-11-15T07:34:56;10.80;99.90
14735;DHT22;7458;49.002;8.472;2022-11-15T07:37:22;11.10;99.90
14735;DHT22;7458;49.002;8.472;2022-11-15T07:39:48;11.00;99.90
14735;DHT22;7458;49.002;8.472;2022-11-15T07:42:14;11.00;99.90
14735;DHT22;7458;49.002;8.472;2022-11-15T07:44:58;11.00;99.90
14735;DHT22;7458;49.002;8.472;2022-11-15T07:47:24;11.10;99.90
14735;DHT22;7458;49.002;8.472;2022-11-15T07:49:49;11.10;99.90
14735;DHT22;7458;49.002;8.472;2022-11-15T07:52:15;11.00;99.90
14735;DHT22;7458;49.002;8.472;2022-11-15T07:54:41;11.10;99.90
14735;DHT22;7458;49.002;8.472;2022-11-15T07:57:07;11.00;99.90
14735;DHT22;7458;49.002;8.472;2022-11-15T07:59:34;11.00;99.90
14735;DHT22;7458;49.002;8.472;2022-11-15T08:02:00;11.10;99.90
14735;DHT22;7458;49.002;8.472;2022-11-15T08:04:26;11.10;99.90
14735;DHT22;7458;49.002;8.472;2022-11-15T08:06:52;11.10;99.90
14735;DHT22;7458;49.002;8.472;2022-11-15T08:09:17;11.20;99.90
14735;DHT22;7458;49.002;8.472;2022-11-15T08:11:43;11.20;99.90
14735;DHT22;7458;49.002;8.472;2022-11-15T08:14:09;11.30;99.90
14735;DHT22;7458;49.002;8.472;2022-11-15T08:16:34;11.30;99.90
14735;DHT22;7458;49.002;8.472;2022-11-15T08:19:00;11.30;99.90
14735;DHT22;7458;49.002;8.472;2022-11-15T08:21:29;11.40;99.90
14735;DHT22;7458;49.002;8.472;2022-11-15T08:23:55;11.40;99.90
14735;DHT22;7458;49.002;8.472;2022-11-15T08:26:20;11.50;99.90
14735;DHT22;7458;49.002;8.472;2022-11-15T08:28:47;12.20;99.90
14735;DHT22;7458;49.002;8.472;2022-11-15T08:31:17;12.30;99.90
14735;DHT22;7458;49.002;8.472;2022-11-15T08:33:46;12.20;99.90
14735;DHT22;7458;49.002;8.472;2022-11-15T08:36:15;12.20;99.90
14735;DHT22;7458;49.002;8.472;2022-11-15T08:38:42;12.20;99.90
14735;DHT22;7458;49.002;8.472;2022-11-15T08:41:16;12.20;99.90
14735;DHT22;7458;49.002;8.472;2022-11-15T08:43:50;12.30;99.90
14735;DHT22;7458;49.002;8.472;2022-11-15T08:46:15;12.30;99.90
14735;DHT22;7458;49.002;8.472;2022-11-15T08:48:41;12.30;99.90
14735;DHT22;7458;49.002;8.472;2022-11-15T08:51:07;12.30;99.90
14735;DHT22;7458;49.002;8.472;2022-11-15T08:53:33;12.30;99.90
14735;DHT22;7458;49.002;8.472;2022-11-15T08:55:59;12.30;99.90
14735;DHT22;7458;49.002;8.472;2022-11-15T08:58:25;12.30;99.90
14735;DHT22;7458;49.002;8.472;2022-11-15T09:00:51;12.30;99.90
14735;DHT22;7458;49.002;8.472;2022-11-15T09:03:17;12.20;99.90
14735;DHT22;7458;49.002;8.472;2022-11-15T09:05:42;12.20;99.90
14735;DHT22;7458;49.002;8.472;2022-11-15T09:08:08;12.30;99.90
14735;DHT22;7458;49.002;8.472;2022-11-15T09:10:34;12.30;99.90
14735;DHT22;7458;49.002;8.472;2022-11-15T09:13:00;12.30;99.90
14735;DHT22;7458;49.002;8.472;2022-11-15T09:15:25;12.30;99.90
14735;DHT22;7458;49.002;8.472;2022-11-15T09:17:51;12.30;99.90
14735;DHT22;7458;49.002;8.472;2022-11-15T09:20:17;12.30;99.90
14735;DHT22;7458;49.002;8.472;2022-11-15T09:22:43;12.20;99.90
14735;DHT22;7458;49.002;8.472;2022-11-15T09:25:09;12.30;99.90
14735;DHT22;7458;49.002;8.472;2022-11-15T09:27:35;12.50;99.90
14735;DHT22;7458;49.002;8.472;2022-11-15T09:30:00;12.30;99.90
14735;DHT22;7458;49.002;8.472;2022-11-15T09:32:29;12.40;99.90
14735;DHT22;7458;49.002;8.472;2022-11-15T09:34:58;12.40;99.90
14735;DHT22;7458;49.002;8.472;2022-11-15T09:37:23;12.40;99.90
14735;DHT22;7458;49.002;8.472;2022-11-15T09:39:49;12.40;99.90
14735;DHT22;7458;49.002;8.472;2022-11-15T09:48:19;12.60;99.90
14735;DHT22;7458;49.002;8.472;2022-11-15T09:51:21;12.60;99.90
14735;DHT22;7458;49.002;8.472;2022-11-15T09:56:36;12.60;99.90
14735;DHT22;7458;49.002;8.472;2022-11-15T10:05:24;12.60;99.90
14735;DHT22;7458;49.002;8.472;2022-11-15T10:10:43;12.60;99.90
14735;DHT22;7458;49.002;8.472;2022-11-15T10:13:31;12.70;99.90
14735;DHT22;7458;49.002;8.472;2022-11-15T10:24:41;13.30;99.90
14735;DHT22;7458;49.002;8.472;2022-11-15T10:27:14;13.20;99.90
14735;DHT22;7458;49.002;8.472;2022-11-15T10:29:49;12.90;99.90
14735;DHT22;7458;49.002;8.472;2022-11-15T10:32:18;13.10;99.90
14735;DHT22;7458;49.002;8.472;2022-11-15T10:34:45;13.10;99.90
14735;DHT22;7458;49.002;8.472;2022-11-15T10:37:12;13.10;99.90
14735;DHT22;7458;49.002;8.472;2022-11-15T10:39:38;13.00;99.90
14735;DHT22;7458;49.002;8.472;2022-11-15T10:42:27;13.00;99.90
14735;DHT22;7458;49.002;8.472;2022-11-15T10:44:54;12.90;99.90
14735;DHT22;7458;49.002;8.472;2022-11-15T10:47:21;12.90;99.90
14735;DHT22;7458;49.002;8.472;2022-11-15T10:49:55;12.90;99.90
14735;DHT22;7458;49.002;8.472;2022-11-15T10:52:34;12.90;99.90
14735;DHT22;7458;49.002;8.472;2022-11-15T10:57:38;12.90;99.90
14735;DHT22;7458;49.002;8.472;2022-11-15T11:00:28;13.00;99.90
14735;DHT22;7458;49.002;8.472;2022-11-15T11:05:27;13.00;99.90
14735;DHT22;7458;49.002;8.472;2022-11-15T11:07:58;13.00;99.90
14735;DHT22;7458;49.002;8.472;2022-11-15T11:10:27;13.10;99.90
14735;DHT22;7458;49.002;8.472;2022-11-15T11:12:53;13.20;99.90
14735;DHT22;7458;49.002;8.472;2022-11-15T11:15:20;13.30;99.90
14735;DHT22;7458;49.002;8.472;2022-11-15T11:18:07;13.40;99.90
14735;DHT22;7458;49.002;8.472;2022-11-15T11:20:45;13.50;99.90
14735;DHT22;7458;49.002;8.472;2022-11-15T11:23:45;13.50;99.90
14735;DHT22;7458;49.002;8.472;2022-11-15T11:29:20;13.60;99.90
14735;DHT22;7458;49.002;8.472;2022-11-15T11:35:32;13.50;99.90
14735;DHT22;7458;49.002;8.472;2022-11-15T11:41:13;13.40;99.90
14735;DHT22;7458;49.002;8.472;2022-11-15T11:46:58;13.40;99.90
14735;DHT22;7458;49.002;8.472;2022-11-15T11:52:38;13.50;99.90
14735;DHT22;7458;49.002;8.472;2022-11-15T11:55:49;13.40;99.90
14735;DHT22;7458;49.002;8.472;2022-11-15T11:58:40;13.40;99.90
14735;DHT22;7458;49.002;8.472;2022-11-15T12:01:20;13.40;99.90
14735;DHT22;7458;49.002;8.472;2022-11-15T12:04:11;13.40;99.90
14735;DHT22;7458;49.002;8.472;2022-11-15T12:06:55;13.30;99.90
14735;DHT22;7458;49.002;8.472;2022-11-15T12:09:44;13.40;99.90
14735;DHT22;7458;49.002;8.472;2022-11-15T12:15:00;13.50;99.90
14735;DHT22;7458;49.002;8.472;2022-11-15T12:17:31;13.60;99.90
14735;DHT22;7458;49.002;8.472;2022-11-15T12:20:04;13.70;99.90
14735;DHT22;7458;49.002;8.472;2022-11-15T12:23:03;13.70;99.90
14735;DHT22;7458;49.002;8.472;2022-11-15T12:25:41;13.90;99.90
14735;DHT22;7458;49.002;8.472;2022-11-15T12:28:13;13.90;99.90
14735;DHT22;7458;49.002;8.472;2022-11-15T12:33:31;14.10;99.90
14735;DHT22;7458;49.002;8.472;2022-11-15T12:36:05;14.00;99.90
14735;DHT22;7458;49.002;8.472;2022-11-15T12:43:54;14.30;99.90
14735;DHT22;7458;49.002;8.472;2022-11-15T12:59:50;14.70;99.90
14735;DHT22;7458;49.002;8.472;2022-11-15T13:02:25;14.70;99.90
14735;DHT22;7458;49.002;8.472;2022-11-15T13:04:54;14.70;99.90
14735;DHT22;7458;49.002;8.472;2022-11-15T13:28:44;14.80;99.90
14735;DHT22;7458;49.002;8.472;2022-11-15T13:31:42;14.80;99.90
14735;DHT22;7458;49.002;8.472;2022-11-15T13:34:29;14.60;99.90
14735;DHT22;7458;49.002;8.472;2022-11-15T13:37:01;14.60;99.90
14735;DHT22;7458;49.002;8.472;2022-11-15T13:39:31;14.60;99.90
14735;DHT22;7458;49.002;8.472;2022-11-15T13:41:59;14.60;99.90
14735;DHT22;7458;49.002;8.472;2022-11-15T13:44:30;14.60;99.90
14735;DHT22;7458;49.002;8.472;2022-11-15T13:47:19;14.60;99.90
14735;DHT22;7458;49.002;8.472;2022-11-15T13:49:45;14.70;99.90
14735;DHT22;7458;49.002;8.472;2022-11-15T13:52:13;14.60;99.90
14735;DHT22;7458;49.002;8.472;2022-11-15T13:54:59;14.60;99.90
14735;DHT22;7458;49.002;8.472;2022-11-15T14:03:27;14.80;99.90
14735;DHT22;7458;49.002;8.472;2022-11-15T14:08:32;14.80;99.90
14735;DHT22;7458;49.002;8.472;2022-11-15T14:11:19;14.80;99.90
14735;DHT22;7458;49.002;8.472;2022-11-15T14:22:09;14.80;99.90
14735;DHT22;7458;49.002;8.472;2022-11-15T14:24:38;14.60;99.90
14735;DHT22;7458;49.002;8.472;2022-11-15T14:29:52;14.60;99.90
14735;DHT22;7458;49.002;8.472;2022-11-15T14:32:22;14.60;99.90
14735;DHT22;7458;49.002;8.472;2022-11-15T14:34:58;14.60;99.90
14735;DHT22;7458;49.002;8.472;2022-11-15T14:37:33;14.70;99.90
14735;DHT22;7458;49.002;8.472;2022-11-15T14:40:01;14.70;99.90
14735;DHT22;7458;49.002;8.472;2022-11-15T14:42:29;14.70;99.90
14735;DHT22;7458;49.002;8.472;2022-11-15T14:44:55;14.70;99.90
14735;DHT22;7458;49.002;8.472;2022-11-15T14:47:20;14.80;99.90
14735;DHT22;7458;49.002;8.472;2022-11-15T14:49:46;14.80;99.90
14735;DHT22;7458;49.002;8.472;2022-11-15T14:54:59;14.80;99.90
14735;DHT22;7458;49.002;8.472;2022-11-15T14:57:26;14.80;99.90
14735;DHT22;7458;49.002;8.472;2022-11-15T14:59:52;14.80;99.90
14735;DHT22;7458;49.002;8.472;2022-11-15T15:02:20;14.70;99.90
14735;DHT22;7458;49.002;8.472;2022-11-15T15:04:48;14.70;99.90
14735;DHT22;7458;49.002;8.472;2022-11-15T15:07:14;14.60;99.90
14735;DHT22;7458;49.002;8.472;2022-11-15T15:09:41;14.60;99.90
14735;DHT22;7458;49.002;8.472;2022-11-15T15:12:21;14.60;99.90
14735;DHT22;7458;49.002;8.472;2022-11-15T15:14:49;14.50;99.90
14735;DHT22;7458;49.002;8.472;2022-11-15T15:17:17;14.50;99.90
14735;DHT22;7458;49.002;8.472;2022-11-15T15:19:43;14.50;99.90
14735;DHT22;7458;49.002;8.472;2022-11-15T15:22:15;14.40;99.90
14735;DHT22;7458;49.002;8.472;2022-11-15T15:24:43;14.40;99.90
14735;DHT22;7458;49.002;8.472;2022-11-15T15:27:10;14.40;99.90
14735;DHT22;7458;49.002;8.472;2022-11-15T15:29:36;14.40;99.90
14735;DHT22;7458;49.002;8.472;2022-11-15T15:32:02;14.40;99.90
14735;DHT22;7458;49.002;8.472;2022-11-15T15:34:28;14.40;99.90
14735;DHT22;7458;49.002;8.472;2022-11-15T15:39:53;14.40;99.90
14735;DHT22;7458;49.002;8.472;2022-11-15T15:42:21;14.90;99.90
14735;DHT22;7458;49.002;8.472;2022-11-15T15:44:48;15.70;99.90
14735;DHT22;7458;49.002;8.472;2022-11-15T15:47:20;15.70;99.90
14735;DHT22;7458;49.002;8.472;2022-11-15T15:49:48;15.40;99.90
14735;DHT22;7458;49.002;8.472;2022-11-15T15:52:16;15.30;99.90
14735;DHT22;7458;49.002;8.472;2022-11-15T15:54:41;15.10;99.90
14735;DHT22;7458;49.002;8.472;2022-11-15T15:57:11;15.00;99.90
14735;DHT22;7458;49.002;8.472;2022-11-15T15:59:38;15.00;99.90
14735;DHT22;7458;49.002;8.472;2022-11-15T16:02:04;14.90;99.90
14735;DHT22;7458;49.002;8.472;2022-11-15T16:04:30;14.90;99.90
14735;DHT22;7458;49.002;8.472;2022-11-15T16:07:00;14.90;99.90
14735;DHT22;7458;49.002;8.472;2022-11-15T16:09:27;14.80;99.90
14735;DHT22;7458;49.002;8.472;2022-11-15T16:12:11;14.80;99.90
14735;DHT22;7458;49.002;8.472;2022-11-15T16:14:37;14.80;99.90
14735;DHT22;7458;49.002;8.472;2022-11-15T16:17:03;14.80;99.90
14735;DHT22;7458;49.002;8.472;2022-11-15T16:19:29;14.80;99.90
14735;DHT22;7458;49.002;8.472;2022-11-15T16:21:55;14.80;99.90
14735;DHT22;7458;49.002;8.472;2022-11-15T16:24:21;14.80;99.90
14735;DHT22;7458;49.002;8.472;2022-11-15T16:26:48;14.80;99.90
14735;DHT22;7458;49.002;8.472;2022-11-15T16:29:16;14.80;99.90
14735;DHT22;7458;49.002;8.472;2022-11-15T16:31:42;14.80;99.90
14735;DHT22;7458;49.002;8.472;2022-11-15T16:34:08;14.80;99.90
14735;DHT22;7458;49.002;8.472;2022-11-15T16:36:34;14.80;99.90
14735;DHT22;7458;49.002;8.472;2022-11-15T16:39:01;14.80;99.90
14735;DHT22;7458;49.002;8.472;2022-11-15T16:41:31;14.80;99.90
14735;DHT22;7458;49.002;8.472;2022-11-15T16:43:57;14.80;99.90
14735;DHT22;7458;49.002;8.472;2022-11-15T16:46:27;14.80;99.90
14735;DHT22;7458;49.002;8.472;2022-11-15T16:48:54;14.80;99.90
14735;DHT22;7458;49.002;8.472;2022-11-15T16:51:21;14.80;99.90
14735;DHT22;7458;49.002;8.472;2022-11-15T16:53:47;14.90;99.90
14735;DHT22;7458;49.002;8.472;2022-11-15T16:56:23;14.90;99.90
14735;DHT22;7458;49.002;8.472;2022-11-15T16:58:52;14.90;99.90
14735;DHT22;7458;49.002;8.472;2022-11-15T17:01:24;14.90;99.90
14735;DHT22;7458;49.002;8.472;2022-11-15T17:03:50;14.80;99.90
14735;DHT22;7458;49.002;8.472;2022-11-15T17:06:16;14.80;99.90
14735;DHT22;7458;49.002;8.472;2022-11-15T17:08:46;14.80;99.90
14735;DHT22;7458;49.002;8.472;2022-11-15T17:11:18;14.70;99.90
14735;DHT22;7458;49.002;8.472;2022-11-15T17:13:45;14.70;99.90
14735;DHT22;7458;49.002;8.472;2022-11-15T17:16:13;14.60;99.90
14735;DHT22;7458;49.002;8.472;2022-11-15T17:18:41;14.60;99.90
14735;DHT22;7458;49.002;8.472;2022-11-15T17:21:16;14.70;99.90
14735;DHT22;7458;49.002;8.472;2022-11-15T17:23:44;14.60;99.90
14735;DHT22;7458;49.002;8.472;2022-11-15T17:26:11;14.60;99.90
14735;DHT22;7458;49.002;8.472;2022-11-15T17:28:39;14.60;99.90
14735;DHT22;7458;49.002;8.472;2022-11-15T17:31:10;14.60;99.90
14735;DHT22;7458;49.002;8.472;2022-11-15T17:33:38;14.70;99.90
14735;DHT22;7458;49.002;8.472;2022-11-15T17:36:09;14.60;99.90
14735;DHT22;7458;49.002;8.472;2022-11-15T17:38:36;14.70;99.90
14735;DHT22;7458;49.002;8.472;2022-11-15T17:41:11;14.70;99.90
14735;DHT22;7458;49.002;8.472;2022-11-15T17:43:39;14.70;99.90
14735;DHT22;7458;49.002;8.472;2022-11-15T17:46:07;14.80;99.90
14735;DHT22;7458;49.002;8.472;2022-11-15T17:48:36;14.80;99.90
14735;DHT22;7458;49.002;8.472;2022-11-15T17:51:04;14.70;99.90
14735;DHT22;7458;49.002;8.472;2022-11-15T17:53:34;14.80;99.90
14735;DHT22;7458;49.002;8.472;2022-11-15T17:56:06;14.80;99.90
14735;DHT22;7458;49.002;8.472;2022-11-15T17:58:36;14.80;99.90
14735;DHT22;7458;49.002;8.472;2022-11-15T18:01:11;14.80;99.90
14735;DHT22;7458;49.002;8.472;2022-11-15T18:03:41;14.80;99.90
14735;DHT22;7458;49.002;8.472;2022-11-15T18:06:08;14.80;99.90
14735;DHT22;7458;49.002;8.472;2022-11-15T18:08:35;14.80;99.90
14735;DHT22;7458;49.002;8.472;2022-11-15T18:11:08;14.70;99.90
14735;DHT22;7458;49.002;8.472;2022-11-15T18:13:37;14.70;99.90
14735;DHT22;7458;49.002;8.472;2022-11-15T18:16:07;14.70;99.90
14735;DHT22;7458;49.002;8.472;2022-11-15T18:18:35;14.60;99.90
14735;DHT22;7458;49.002;8.472;2022-11-15T18:21:19;14.60;99.90
14735;DHT22;7458;49.002;8.472;2022-11-15T18:23:47;14.50;99.90
14735;DHT22;7458;49.002;8.472;2022-11-15T18:26:16;14.50;99.90
14735;DHT22;7458;49.002;8.472;2022-11-15T18:28:44;14.50;99.90
14735;DHT22;7458;49.002;8.472;2022-11-15T18:33:43;14.50;99.90
14735;DHT22;7458;49.002;8.472;2022-11-15T18:36:15;14.50;99.90
14735;DHT22;7458;49.002;8.472;2022-11-15T18:38:43;14.50;99.90
14735;DHT22;7458;49.002;8.472;2022-11-15T18:41:13;14.50;99.90
14735;DHT22;7458;49.002;8.472;2022-11-15T18:43:43;14.50;99.90
14735;DHT22;7458;49.002;8.472;2022-11-15T18:46:14;14.50;99.90